sensor_id;sensor_type;location;lat;lon;timestamp;pressure;altitude;pressure_sealevel;temperature;humidity
26192;BME280;13935;55.672;37.764;2023-01-28T00:00:27;100776.09;;;0.69;100.00
26192;BME280;13935;55.672;37.764;2023-01-28T00:01:34;100772.56;;;0.68;100.00
26192;BME280;13935;55.672;37.764;2023-01-28T00:02:43;100769.25;;;0.71;100.00
26192;BME280;13935;55.672;37.764;2023-01-28T00:03:53;100773.19;;;0.79;100.00
26192;BME280;13935;55.672;37.764;2023-01-28T00:04:59;100767.41;;;0.67;100.00
26192;BME280;13935;55.672;37.764;2023-01-28T00:06:12;100776.19;;;0.64;100.00
26192;BME280;13935;55.672;37.764;2023-01-28T00:07:19;100773.16;;;0.52;100.00
26192;BME280;13935;55.672;37.764;2023-01-28T00:08:24;100774.84;;;0.48;100.00
26192;BME280;13935;55.672;37.764;2023-01-28T00:09:27;100770.34;;;0.57;100.00
26192;BME280;13935;55.672;37.764;2023-01-28T00:10:30;100770.13;;;0.67;100.00
26192;BME280;13935;55.672;37.764;2023-01-28T00:11:35;100766.75;;;0.75;100.00
26192;BME280;13935;55.672;37.764;2023-01-28T00:12:45;100768.81;;;0.51;100.00
26192;BME280;13935;55.672;37.764;2023-01-28T00:13:52;100766.09;;;0.51;100.00
26192;BME280;13935;55.672;37.764;2023-01-28T00:14:56;100768.06;;;0.46;100.00
26192;BME280;13935;55.672;37.764;2023-01-28T00:16:04;100764.56;;;0.45;100.00
26192;BME280;13935;55.672;37.764;2023-01-28T00:17:09;100770.09;;;0.40;100.00
26192;BME280;13935;55.672;37.764;2023-01-28T00:18:14;100771.13;;;0.58;100.00
26192;BME280;13935;55.672;37.764;2023-01-28T00:19:20;100765.69;;;0.58;100.00
26192;BME280;13935;55.672;37.764;2023-01-28T00:20:24;100766.41;;;0.63;100.00
26192;BME280;13935;55.672;37.764;2023-01-28T00:21:28;100768.94;;;0.73;100.00
26192;BME280;13935;55.672;37.764;2023-01-28T00:22:35;100764.34;;;0.87;100.00
26192;BME280;13935;55.672;37.764;2023-01-28T00:23:42;100773.38;;;0.69;100.00
26192;BME280;13935;55.672;37.764;2023-01-28T00:24:46;100762.50;;;0.69;100.00
26192;BME280;13935;55.672;37.764;2023-01-28T00:25:51;100757.63;;;0.66;100.00
26192;BME280;13935;55.672;37.764;2023-01-28T00:26:57;100764.28;;;0.60;100.00
26192;BME280;13935;55.672;37.764;2023-01-28T00:28:00;100771.34;;;0.61;100.00
26192;BME280;13935;55.672;37.764;2023-01-28T00:29:06;100756.25;;;0.82;100.00
26192;BME280;13935;55.672;37.764;2023-01-28T00:30:37;100764.63;;;0.99;100.00
26192;BME280;13935;55.672;37.764;2023-01-28T00:31:40;100763.75;;;1.03;100.00
26192;BME280;13935;55.672;37.764;2023-01-28T00:32:44;100764.94;;;0.97;100.00
26192;BME280;13935;55.672;37.764;2023-01-28T00:33:57;100768.06;;;0.91;100.00
26192;BME280;13935;55.672;37.764;2023-01-28T00:35:05;100761.50;;;0.78;100.00
26192;BME280;13935;55.672;37.764;2023-01-28T00:36:13;100771.75;;;0.68;100.00
26192;BME280;13935;55.672;37.764;2023-01-28T00:37:19;100764.13;;;0.70;100.00
26192;BME280;13935;55.672;37.764;2023-01-28T00:38:22;100769.72;;;0.60;100.00
26192;BME280;13935;55.672;37.764;2023-01-28T00:39:26;100767.94;;;0.69;100.00
26192;BME280;13935;55.672;37.764;2023-01-28T00:40:29;100766.94;;;0.65;100.00
26192;BME280;13935;55.672;37.764;2023-01-28T00:41:39;100763.06;;;0.66;100.00
26192;BME280;13935;55.672;37.764;2023-01-28T00:42:46;100767.09;;;0.55;100.00
26192;BME280;13935;55.672;37.764;2023-01-28T00:43:49;100775.16;;;0.60;100.00
26192;BME280;13935;55.672;37.764;2023-01-28T00:45:00;100772.03;;;0.53;100.00
26192;BME280;13935;55.672;37.764;2023-01-28T00:46:08;100773.63;;;0.54;100.00
26192;BME280;13935;55.672;37.764;2023-01-28T00:47:12;100781.31;;;0.52;100.00
26192;BME280;13935;55.672;37.764;2023-01-28T00:48:19;100775.53;;;0.40;100.00
26192;BME280;13935;55.672;37.764;2023-01-28T00:49:25;100771.63;;;0.46;100.00
26192;BME280;13935;55.672;37.764;2023-01-28T00:50:28;100775.34;;;0.50;100.00
26192;BME280;13935;55.672;37.764;2023-01-28T00:51:32;100778.41;;;0.62;100.00
26192;BME280;13935;55.672;37.764;2023-01-28T00:52:38;100776.19;;;0.64;100.00
26192;BME280;13935;55.672;37.764;2023-01-28T00:53:46;100776.78;;;0.61;100.00
26192;BME280;13935;55.672;37.764;2023-01-28T00:54:53;100777.97;;;0.55;100.00
26192;BME280;13935;55.672;37.764;2023-01-28T00:56:00;100780.41;;;0.57;100.00
26192;BME280;13935;55.672;37.764;2023-01-28T00:57:03;100778.72;;;0.74;100.00
26192;BME280;13935;55.672;37.764;2023-01-28T00:58:07;100778.28;;;0.54;100.00
26192;BME280;13935;55.672;37.764;2023-01-28T00:59:13;100776.88;;;0.56;100.00
26192;BME280;13935;55.672;37.764;2023-01-28T01:00:17;100779.78;;;0.46;100.00
26192;BME280;13935;55.672;37.764;2023-01-28T01:01:25;100772.81;;;0.40;100.00
26192;BME280;13935;55.672;37.764;2023-01-28T01:02:29;100782.19;;;0.48;100.00
26192;BME280;13935;55.672;37.764;2023-01-28T01:03:33;100784.81;;;0.39;100.00
26192;BME280;13935;55.672;37.764;2023-01-28T01:04:36;100774.38;;;0.60;100.00
26192;BME280;13935;55.672;37.764;2023-01-28T01:05:43;100780.22;;;0.67;100.00
26192;BME280;13935;55.672;37.764;2023-01-28T01:06:47;100778.88;;;0.51;100.00
26192;BME280;13935;55.672;37.764;2023-01-28T01:07:51;100781.09;;;0.49;100.00
26192;BME280;13935;55.672;37.764;2023-01-28T01:08:54;100771.97;;;0.26;100.00
26192;BME280;13935;55.672;37.764;2023-01-28T01:10:00;100773.19;;;0.34;100.00
26192;BME280;13935;55.672;37.764;2023-01-28T01:11:08;100771.34;;;0.29;100.00
26192;BME280;13935;55.672;37.764;2023-01-28T01:12:14;100778.94;;;0.32;100.00
26192;BME280;13935;55.672;37.764;2023-01-28T01:13:20;100773.16;;;0.52;100.00
26192;BME280;13935;55.672;37.764;2023-01-28T01:14:35;100776.78;;;0.61;100.00
26192;BME280;13935;55.672;37.764;2023-01-28T01:15:44;100768.03;;;0.64;100.00
26192;BME280;13935;55.672;37.764;2023-01-28T01:17:01;100767.94;;;0.69;100.00
26192;BME280;13935;55.672;37.764;2023-01-28T01:18:05;100772.09;;;0.80;100.00
26192;BME280;13935;55.672;37.764;2023-01-28T01:19:09;100770.47;;;0.79;100.00
26192;BME280;13935;55.672;37.764;2023-01-28T01:20:23;100773.19;;;0.79;100.00
26192;BME280;13935;55.672;37.764;2023-01-28T01:21:28;100774.94;;;0.57;100.00
26192;BME280;13935;55.672;37.764;2023-01-28T01:22:35;100779.94;;;0.36;100.00
26192;BME280;13935;55.672;37.764;2023-01-28T01:23:52;100781.75;;;0.27;100.00
26192;BME280;13935;55.672;37.764;2023-01-28T01:25:03;100783.31;;;0.28;100.00
26192;BME280;13935;55.672;37.764;2023-01-28T01:26:08;100784.59;;;0.36;100.00
26192;BME280;13935;55.672;37.764;2023-01-28T01:27:14;100778.72;;;0.29;100.00
26192;BME280;13935;55.672;37.764;2023-01-28T01:28:22;100784.59;;;0.36;100.00
26192;BME280;13935;55.672;37.764;2023-01-28T01:29:29;100784.53;;;0.54;100.00
26192;BME280;13935;55.672;37.764;2023-01-28T01:30:37;100782.00;;;0.58;100.00
26192;BME280;13935;55.672;37.764;2023-01-28T01:31:44;100780.94;;;0.72;100.00
26192;BME280;13935;55.672;37.764;2023-01-28T01:32:55;100778.22;;;0.72;100.00
26192;BME280;13935;55.672;37.764;2023-01-28T01:34:03;100772.38;;;0.65;100.00
26192;BME280;13935;55.672;37.764;2023-01-28T01:35:09;100771.56;;;0.78;100.00
26192;BME280;13935;55.672;37.764;2023-01-28T01:36:15;100770.97;;;0.81;100.00
26192;BME280;13935;55.672;37.764;2023-01-28T01:37:22;100776.13;;;0.82;100.00
26192;BME280;13935;55.672;37.764;2023-01-28T01:38:27;100772.59;;;0.82;100.00
26192;BME280;13935;55.672;37.764;2023-01-28T01:39:33;100773.97;;;0.66;100.00
26192;BME280;13935;55.672;37.764;2023-01-28T01:40:51;100775.78;;;0.70;100.00
26192;BME280;13935;55.672;37.764;2023-01-28T01:42:02;100772.53;;;0.55;100.00
26192;BME280;13935;55.672;37.764;2023-01-28T01:43:16;100768.06;;;0.46;100.00
26192;BME280;13935;55.672;37.764;2023-01-28T01:45:59;100761.84;;;0.45;100.00
26192;BME280;13935;55.672;37.764;2023-01-28T01:47:05;100765.56;;;0.49;100.00
26192;BME280;13935;55.672;37.764;2023-01-28T01:48:32;100764.72;;;0.35;100.00
26192;BME280;13935;55.672;37.764;2023-01-28T01:49:36;100760.38;;;0.34;100.00
26192;BME280;13935;55.672;37.764;2023-01-28T01:51:05;100764.66;;;0.40;100.00
26192;BME280;13935;55.672;37.764;2023-01-28T01:52:14;100762.81;;;0.36;100.00
26192;BME280;13935;55.672;37.764;2023-01-28T01:53:25;100763.63;;;0.36;100.00
26192;BME280;13935;55.672;37.764;2023-01-28T01:54:33;100768.19;;;0.22;100.00
26192;BME280;13935;55.672;37.764;2023-01-28T01:55:44;100763.38;;;0.19;100.00
26192;BME280;13935;55.672;37.764;2023-01-28T01:56:49;100763.50;;;0.28;100.00
26192;BME280;13935;55.672;37.764;2023-01-28T01:57:54;100753.34;;;0.33;100.00
26192;BME280;13935;55.672;37.764;2023-01-28T01:59:04;100763.59;;;0.23;100.00
26192;BME280;13935;55.672;37.764;2023-01-28T02:00:17;100759.88;;;0.32;100.00
26192;BME280;13935;55.672;37.764;2023-01-28T02:01:26;100759.13;;;0.45;100.00
26192;BME280;13935;55.672;37.764;2023-01-28T02:02:39;100759.38;;;0.30;100.00
26192;BME280;13935;55.672;37.764;2023-01-28T02:04:37;100762.22;;;0.39;100.00
26192;BME280;13935;55.672;37.764;2023-01-28T02:05:21;100766.59;;;0.21;100.00
26192;BME280;13935;55.672;37.764;2023-01-28T02:06:31;100766.53;;;0.08;100.00
26192;BME280;13935;55.672;37.764;2023-01-28T02:07:40;100776.44;;;0.17;100.00
26192;BME280;13935;55.672;37.764;2023-01-28T02:08:48;100769.69;;;0.15;100.00
26192;BME280;13935;55.672;37.764;2023-01-28T02:09:54;100771.97;;;0.08;100.00
26192;BME280;13935;55.672;37.764;2023-01-28T02:11:10;100761.69;;;0.05;100.00
26192;BME280;13935;55.672;37.764;2023-01-28T02:12:23;100773.38;;;0.05;100.00
26192;BME280;13935;55.672;37.764;2023-01-28T02:13:40;100776.00;;;0.10;100.00
26192;BME280;13935;55.672;37.764;2023-01-28T02:14:49;100772.34;;;0.01;100.00
26192;BME280;13935;55.672;37.764;2023-01-28T02:15:54;100769.63;;;0.01;100.00
26192;BME280;13935;55.672;37.764;2023-01-28T02:17:01;100778.53;;;-0.11;100.00
26192;BME280;13935;55.672;37.764;2023-01-28T02:18:05;100774.13;;;-0.07;100.00
26192;BME280;13935;55.672;37.764;2023-01-28T02:19:20;100771.91;;;-0.05;100.00
26192;BME280;13935;55.672;37.764;2023-01-28T02:22:34;100780.81;;;0.00;100.00
26192;BME280;13935;55.672;37.764;2023-01-28T02:30:31;100780.16;;;-0.10;100.00
26192;BME280;13935;55.672;37.764;2023-01-28T02:32:05;100779.69;;;0.01;100.00
26192;BME280;13935;55.672;37.764;2023-01-28T02:36:47;100776.53;;;-0.06;100.00
26192;BME280;13935;55.672;37.764;2023-01-28T02:37:56;100784.69;;;0.12;100.00
26192;BME280;13935;55.672;37.764;2023-01-28T02:39:09;100781.22;;;0.07;100.00
26192;BME280;13935;55.672;37.764;2023-01-28T02:40:38;100785.13;;;0.19;100.00
26192;BME280;13935;55.672;37.764;2023-01-28T02:42:26;100777.88;;;0.28;100.00
26192;BME280;13935;55.672;37.764;2023-01-28T02:43:39;100778.84;;;0.19;100.00
26192;BME280;13935;55.672;37.764;2023-01-28T02:44:42;100787.31;;;0.17;100.00
26192;BME280;13935;55.672;37.764;2023-01-28T02:46:32;100781.00;;;0.03;100.00
26192;BME280;13935;55.672;37.764;2023-01-28T02:47:56;100785.44;;;0.18;100.00
26192;BME280;13935;55.672;37.764;2023-01-28T02:49:09;100786.34;;;0.27;100.00
26192;BME280;13935;55.672;37.764;2023-01-28T02:50:18;100785.69;;;0.16;100.00
26192;BME280;13935;55.672;37.764;2023-01-28T02:53:00;100785.69;;;0.16;100.00
26192;BME280;13935;55.672;37.764;2023-01-28T02:54:57;100787.72;;;-0.07;100.00
26192;BME280;13935;55.672;37.764;2023-01-28T02:56:19;100801.00;;;0.12;100.00
26192;BME280;13935;55.672;37.764;2023-01-28T02:58:23;100798.88;;;-0.09;100.00
26192;BME280;13935;55.672;37.764;2023-01-28T03:02:10;100798.44;;;0.02;100.00
26192;BME280;13935;55.672;37.764;2023-01-28T03:03:25;100801.00;;;-0.06;100.00
26192;BME280;13935;55.672;37.764;2023-01-28T03:06:48;100802.41;;;-0.27;100.00
26192;BME280;13935;55.672;37.764;2023-01-28T03:07:56;100803.56;;;-0.33;100.00
26192;BME280;13935;55.672;37.764;2023-01-28T03:09:27;100809.34;;;-0.39;100.00
26192;BME280;13935;55.672;37.764;2023-01-28T03:10:30;100807.69;;;-0.35;100.00
26192;BME280;13935;55.672;37.764;2023-01-28T03:12:06;100808.25;;;-0.38;100.00
26192;BME280;13935;55.672;37.764;2023-01-28T03:13:27;100806.00;;;-0.31;100.00
26192;BME280;13935;55.672;37.764;2023-01-28T03:16:39;100804.00;;;-0.44;100.00
26192;BME280;13935;55.672;37.764;2023-01-28T03:18:19;100810.19;;;-0.39;100.00
26192;BME280;13935;55.672;37.764;2023-01-28T03:19:44;100811.19;;;-0.35;100.00
26192;BME280;13935;55.672;37.764;2023-01-28T03:21:10;100802.09;;;-0.44;100.00
26192;BME280;13935;55.672;37.764;2023-01-28T03:22:36;100809.00;;;-0.33;100.00
26192;BME280;13935;55.672;37.764;2023-01-28T03:24:23;100806.88;;;-0.36;100.00
26192;BME280;13935;55.672;37.764;2023-01-28T03:25:58;100810.03;;;-0.47;100.00
26192;BME280;13935;55.672;37.764;2023-01-28T03:28:47;100814.53;;;-0.38;100.00
26192;BME280;13935;55.672;37.764;2023-01-28T03:30:24;100811.84;;;-0.43;100.00
26192;BME280;13935;55.672;37.764;2023-01-28T03:32:01;100811.63;;;-0.46;100.00
26192;BME280;13935;55.672;37.764;2023-01-28T03:33:25;100810.75;;;-0.42;100.00
26192;BME280;13935;55.672;37.764;2023-01-28T03:34:51;100819.19;;;-0.43;100.00
26192;BME280;13935;55.672;37.764;2023-01-28T03:36:19;100810.41;;;-0.35;100.00
26192;BME280;13935;55.672;37.764;2023-01-28T03:37:50;100816.88;;;-0.31;100.00
26192;BME280;13935;55.672;37.764;2023-01-28T03:38:58;100812.03;;;-0.34;100.00
26192;BME280;13935;55.672;37.764;2023-01-28T03:40:07;100815.84;;;-0.35;100.00
26192;BME280;13935;55.672;37.764;2023-01-28T03:41:10;100811.09;;;-0.25;100.00
26192;BME280;13935;55.672;37.764;2023-01-28T03:42:16;100815.84;;;-0.35;100.00
26192;BME280;13935;55.672;37.764;2023-01-28T03:43:48;100820.00;;;-0.43;100.00
26192;BME280;13935;55.672;37.764;2023-01-28T03:45:02;100815.84;;;-0.35;100.00
26192;BME280;13935;55.672;37.764;2023-01-28T03:46:10;100819.72;;;-0.41;100.00
26192;BME280;13935;55.672;37.764;2023-01-28T03:47:38;100825.19;;;-0.46;100.00
26192;BME280;13935;55.672;37.764;2023-01-28T03:48:45;100820.66;;;-0.51;100.00
26192;BME280;13935;55.672;37.764;2023-01-28T03:49:59;100821.16;;;-0.49;100.00
26192;BME280;13935;55.672;37.764;2023-01-28T03:51:14;100819.56;;;-0.50;100.00
26192;BME280;13935;55.672;37.764;2023-01-28T03:52:23;100823.84;;;-0.44;100.00
26192;BME280;13935;55.672;37.764;2023-01-28T03:53:29;100820.38;;;-0.49;100.00
26192;BME280;13935;55.672;37.764;2023-01-28T03:54:34;100822.47;;;-0.46;100.00
26192;BME280;13935;55.672;37.764;2023-01-28T03:55:40;100817.34;;;-0.48;100.00
26192;BME280;13935;55.672;37.764;2023-01-28T03:56:48;100819.03;;;-0.52;100.00
26192;BME280;13935;55.672;37.764;2023-01-28T03:57:54;100817.56;;;-0.44;100.00
26192;BME280;13935;55.672;37.764;2023-01-28T03:59:05;100811.34;;;-0.45;100.00
26192;BME280;13935;55.672;37.764;2023-01-28T04:00:10;100811.63;;;-0.46;100.00
26192;BME280;13935;55.672;37.764;2023-01-28T04:01:19;100813.25;;;-0.45;100.00
26192;BME280;13935;55.672;37.764;2023-01-28T04:02:26;100813.31;;;-0.50;100.00
26192;BME280;13935;55.672;37.764;2023-01-28T04:03:44;100805.09;;;-0.45;100.00
26192;BME280;13935;55.672;37.764;2023-01-28T04:04:53;100809.44;;;-0.44;100.00
26192;BME280;13935;55.672;37.764;2023-01-28T04:06:01;100800.72;;;-0.41;100.00
26192;BME280;13935;55.672;37.764;2023-01-28T04:07:25;100810.06;;;-0.52;100.00
26192;BME280;13935;55.672;37.764;2023-01-28T04:08:52;100806.31;;;-0.56;100.00
26192;BME280;13935;55.672;37.764;2023-01-28T04:10:19;100815.00;;;-0.54;100.00
26192;BME280;13935;55.672;37.764;2023-01-28T04:11:29;100815.50;;;-0.52;100.00
26192;BME280;13935;55.672;37.764;2023-01-28T04:12:36;100815.72;;;-0.49;100.00
26192;BME280;13935;55.672;37.764;2023-01-28T04:13:43;100819.97;;;-0.61;100.00
26192;BME280;13935;55.672;37.764;2023-01-28T04:14:52;100815.69;;;-0.67;100.00
26192;BME280;13935;55.672;37.764;2023-01-28T04:16:05;100815.09;;;-0.64;100.00
26192;BME280;13935;55.672;37.764;2023-01-28T04:17:12;100810.78;;;-0.65;100.00
26192;BME280;13935;55.672;37.764;2023-01-28T04:18:17;100812.41;;;-0.64;100.00
26192;BME280;13935;55.672;37.764;2023-01-28T04:19:27;100808.59;;;-0.63;100.00
26192;BME280;13935;55.672;37.764;2023-01-28T04:20:41;100815.63;;;-0.62;100.00
26192;BME280;13935;55.672;37.764;2023-01-28T04:21:46;100812.91;;;-0.62;100.00
26192;BME280;13935;55.672;37.764;2023-01-28T04:22:50;100816.72;;;-0.63;100.00
26192;BME280;13935;55.672;37.764;2023-01-28T04:23:55;100811.22;;;-0.58;100.00
26192;BME280;13935;55.672;37.764;2023-01-28T04:25:00;100815.50;;;-0.52;100.00
26192;BME280;13935;55.672;37.764;2023-01-28T04:26:05;100816.72;;;-0.63;100.00
26192;BME280;13935;55.672;37.764;2023-01-28T04:27:08;100814.41;;;-0.51;100.00
26192;BME280;13935;55.672;37.764;2023-01-28T04:28:13;100819.34;;;-0.53;100.00
26192;BME280;13935;55.672;37.764;2023-01-28T04:29:17;100811.91;;;-0.66;100.00
26192;BME280;13935;55.672;37.764;2023-01-28T04:30:21;100811.81;;;-0.61;100.00
26192;BME280;13935;55.672;37.764;2023-01-28T04:31:46;100816.16;;;-0.60;100.00
26192;BME280;13935;55.672;37.764;2023-01-28T04:32:55;100815.63;;;-0.62;100.00
26192;BME280;13935;55.672;37.764;2023-01-28T04:34:21;100810.34;;;-0.72;100.00
26192;BME280;13935;55.672;37.764;2023-01-28T04:35:51;100816.09;;;-0.78;100.00
26192;BME280;13935;55.672;37.764;2023-01-28T04:37:22;100813.16;;;-0.82;100.00
26192;BME280;13935;55.672;37.764;2023-01-28T04:38:55;100810.81;;;-0.88;100.00
26192;BME280;13935;55.672;37.764;2023-01-28T04:40:18;100806.41;;;-0.84;100.00
26192;BME280;13935;55.672;37.764;2023-01-28T04:41:30;100813.09;;;-0.77;100.00
26192;BME280;13935;55.672;37.764;2023-01-28T04:42:42;100813.16;;;-0.82;100.00
26192;BME280;13935;55.672;37.764;2023-01-28T04:44:02;100816.72;;;-0.86;100.00
26192;BME280;13935;55.672;37.764;2023-01-28T04:45:16;100806.16;;;-0.88;100.00
26192;BME280;13935;55.672;37.764;2023-01-28T04:46:57;100812.00;;;-0.76;100.00
26192;BME280;13935;55.672;37.764;2023-01-28T04:48:30;100813.75;;;-0.85;100.00
26192;BME280;13935;55.672;37.764;2023-01-28T04:50:39;100818.66;;;-0.87;100.00
26192;BME280;13935;55.672;37.764;2023-01-28T04:52:21;100814.59;;;-0.89;100.00
26192;BME280;13935;55.672;37.764;2023-01-28T04:54:06;100819.69;;;-0.83;100.00
26192;BME280;13935;55.672;37.764;2023-01-28T04:55:12;100816.47;;;-0.85;100.00
26192;BME280;13935;55.672;37.764;2023-01-28T04:56:20;100819.69;;;-0.83;100.00
26192;BME280;13935;55.672;37.764;2023-01-28T04:57:25;100820.50;;;-0.82;100.00
26192;BME280;13935;55.672;37.764;2023-01-28T04:58:29;100821.28;;;-0.82;100.00
26192;BME280;13935;55.672;37.764;2023-01-28T04:59:39;100828.34;;;-0.81;100.00
26192;BME280;13935;55.672;37.764;2023-01-28T05:00:42;100818.53;;;-0.77;100.00
26192;BME280;13935;55.672;37.764;2023-01-28T05:02:08;100821.72;;;-0.93;100.00
26192;BME280;13935;55.672;37.764;2023-01-28T05:03:33;100826.72;;;-0.82;100.00
26192;BME280;13935;55.672;37.764;2023-01-28T05:04:42;100824.59;;;-0.85;100.00
26192;BME280;13935;55.672;37.764;2023-01-28T05:05:56;100826.22;;;-0.84;100.00
26192;BME280;13935;55.672;37.764;2023-01-28T05:07:14;100818.41;;;-0.90;100.00
26192;BME280;13935;55.672;37.764;2023-01-28T05:08:18;100829.22;;;-0.85;100.00
26192;BME280;13935;55.672;37.764;2023-01-28T05:09:21;100824.06;;;-0.87;100.00
26192;BME280;13935;55.672;37.764;2023-01-28T05:10:26;100828.34;;;-0.81;100.00
26192;BME280;13935;55.672;37.764;2023-01-28T05:11:29;100830.59;;;-0.88;100.00
26192;BME280;13935;55.672;37.764;2023-01-28T05:12:35;100820.91;;;-0.94;100.00
26192;BME280;13935;55.672;37.764;2023-01-28T05:13:42;100825.75;;;-0.91;100.00
26192;BME280;13935;55.672;37.764;2023-01-28T05:14:47;100837.19;;;-0.94;100.00
26192;BME280;13935;55.672;37.764;2023-01-28T05:15:55;100836.25;;;-0.84;100.00
26192;BME280;13935;55.672;37.764;2023-01-28T05:16:58;100836.88;;;-0.92;100.00
26192;BME280;13935;55.672;37.764;2023-01-28T05:18:07;100832.75;;;-0.85;100.00
26192;BME280;13935;55.672;37.764;2023-01-28T05:19:16;100837.66;;;-0.87;100.00
26192;BME280;13935;55.672;37.764;2023-01-28T05:20:21;100839.28;;;-0.86;100.00
26192;BME280;13935;55.672;37.764;2023-01-28T05:21:29;100840.06;;;-0.85;100.00
26192;BME280;13935;55.672;37.764;2023-01-28T05:22:41;100836.09;;;-0.93;100.00
26192;BME280;13935;55.672;37.764;2023-01-28T05:23:57;100835.56;;;-0.95;100.00
26192;BME280;13935;55.672;37.764;2023-01-28T05:25:07;100842.56;;;-0.89;100.00
26192;BME280;13935;55.672;37.764;2023-01-28T05:26:13;100845.91;;;-0.97;100.00
26192;BME280;13935;55.672;37.764;2023-01-28T05:27:24;100848.09;;;-0.99;100.00
26192;BME280;13935;55.672;37.764;2023-01-28T05:28:28;100842.78;;;-1.09;100.00
26192;BME280;13935;55.672;37.764;2023-01-28T05:29:35;100841.97;;;-1.09;100.00
26192;BME280;13935;55.672;37.764;2023-01-28T05:30:38;100843.81;;;-1.05;100.00
26192;BME280;13935;55.672;37.764;2023-01-28T05:31:41;100847.16;;;-1.13;100.00
26192;BME280;13935;55.672;37.764;2023-01-28T05:32:54;100842.81;;;-1.14;100.00
26192;BME280;13935;55.672;37.764;2023-01-28T05:34:00;100842.78;;;-1.09;100.00
26192;BME280;13935;55.672;37.764;2023-01-28T05:35:04;100840.34;;;-1.10;100.00
26192;BME280;13935;55.672;37.764;2023-01-28T05:36:08;100843.81;;;-1.05;100.00
26192;BME280;13935;55.672;37.764;2023-01-28T05:37:15;100846.28;;;-1.08;100.00
26192;BME280;13935;55.672;37.764;2023-01-28T05:38:21;100839.78;;;-1.07;100.00
26192;BME280;13935;55.672;37.764;2023-01-28T05:39:25;100848.41;;;-1.05;100.00
26192;BME280;13935;55.672;37.764;2023-01-28T05:40:28;100849.81;;;-1.08;100.00
26192;BME280;13935;55.672;37.764;2023-01-28T05:41:38;100842.19;;;-1.06;100.00
26192;BME280;13935;55.672;37.764;2023-01-28T05:42:50;100838.94;;;-1.08;100.00
26192;BME280;13935;55.672;37.764;2023-01-28T05:44:27;100835.81;;;-1.20;100.00
26192;BME280;13935;55.672;37.764;2023-01-28T05:45:50;100837.44;;;-1.19;100.00
26192;BME280;13935;55.672;37.764;2023-01-28T05:47:02;100836.75;;;-1.06;100.00
26192;BME280;13935;55.672;37.764;2023-01-28T05:48:25;100834.66;;;-1.14;100.00
26192;BME280;13935;55.672;37.764;2023-01-28T05:49:46;100842.97;;;-1.29;100.00
26192;BME280;13935;55.672;37.764;2023-01-28T05:51:05;100838.59;;;-1.25;100.00
26192;BME280;13935;55.672;37.764;2023-01-28T05:52:24;100842.34;;;-1.21;100.00
26192;BME280;13935;55.672;37.764;2023-01-28T05:53:38;100849.31;;;-1.15;100.00
26192;BME280;13935;55.672;37.764;2023-01-28T05:54:42;100844.00;;;-1.25;100.00
26192;BME280;13935;55.672;37.764;2023-01-28T05:55:49;100840.09;;;-1.14;100.00
26192;BME280;13935;55.672;37.764;2023-01-28T05:56:52;100834.66;;;-1.14;100.00
26192;BME280;13935;55.672;37.764;2023-01-28T05:57:57;100835.75;;;-1.15;100.00
26192;BME280;13935;55.672;37.764;2023-01-28T05:59:01;100836.28;;;-1.13;100.00
26192;BME280;13935;55.672;37.764;2023-01-28T06:00:10;100843.34;;;-1.12;100.00
26192;BME280;13935;55.672;37.764;2023-01-28T06:01:17;100845.63;;;-1.24;100.00
26192;BME280;13935;55.672;37.764;2023-01-28T06:02:27;100850.03;;;-1.28;100.00
26192;BME280;13935;55.672;37.764;2023-01-28T06:03:36;100855.00;;;-1.40;100.00
26192;BME280;13935;55.672;37.764;2023-01-28T06:04:41;100851.59;;;-1.27;100.00
26192;BME280;13935;55.672;37.764;2023-01-28T06:05:49;100857.38;;;-1.33;100.00
26192;BME280;13935;55.672;37.764;2023-01-28T06:06:53;100860.94;;;-1.38;100.00
26192;BME280;13935;55.672;37.764;2023-01-28T06:07:57;100862.03;;;-1.39;100.00
26192;BME280;13935;55.672;37.764;2023-01-28T06:09:00;100861.78;;;-1.37;100.00
26192;BME280;13935;55.672;37.764;2023-01-28T06:10:06;100866.84;;;-1.31;100.00
26192;BME280;13935;55.672;37.764;2023-01-28T06:11:09;100868.72;;;-1.26;100.00
26192;BME280;13935;55.672;37.764;2023-01-28T06:12:16;100864.69;;;-1.29;100.00
26192;BME280;13935;55.672;37.764;2023-01-28T06:13:44;100865.22;;;-1.32;100.00
26192;BME280;13935;55.672;37.764;2023-01-28T06:15:10;100872.63;;;-1.37;100.00
26192;BME280;13935;55.672;37.764;2023-01-28T06:16:34;100872.03;;;-1.34;100.00
26192;BME280;13935;55.672;37.764;2023-01-28T06:18:00;100868.56;;;-1.40;100.00
26192;BME280;13935;55.672;37.764;2023-01-28T06:19:07;100864.31;;;-1.50;100.00
26192;BME280;13935;55.672;37.764;2023-01-28T06:20:11;100864.50;;;-1.42;100.00
26192;BME280;13935;55.672;37.764;2023-01-28T06:21:18;100877.31;;;-1.47;100.00
26192;BME280;13935;55.672;37.764;2023-01-28T06:22:23;100871.16;;;-1.58;100.00
26192;BME280;13935;55.672;37.764;2023-01-28T06:23:26;100875.09;;;-1.45;100.00
26192;BME280;13935;55.672;37.764;2023-01-28T06:24:29;100876.09;;;-1.32;100.00
26192;BME280;13935;55.672;37.764;2023-01-28T06:25:33;100868.03;;;-1.42;100.00
26192;BME280;13935;55.672;37.764;2023-01-28T06:26:45;100869.66;;;-1.41;100.00
26192;BME280;13935;55.672;37.764;2023-01-28T06:27:49;100879.41;;;-1.40;100.00
26192;BME280;13935;55.672;37.764;2023-01-28T06:28:53;100876.19;;;-1.42;100.00
26192;BME280;13935;55.672;37.764;2023-01-28T06:29:56;100881.66;;;-1.46;100.00
26192;BME280;13935;55.672;37.764;2023-01-28T06:31:03;100881.91;;;-1.48;100.00
26192;BME280;13935;55.672;37.764;2023-01-28T06:32:10;100875.34;;;-1.42;100.00